Time;durP1;ratioP1;P1;durP2;ratioP2;P2;SDS_P1;SDS_P2;PMS_P1;PMS_P2;Temp;Humidity;BMP_temperature;BMP_pressure;BME280_temperature;BME280_humidity;BME280_pressure;Samples;Min_cycle;Max_cycle;Signal;HPM_P1;HPM_P2
2021/11/09 00:02:02;;;;;;;11.38;8.82;;;;;;;;;;6203199;28;22630;-67
2021/11/09 00:05:05;;;;;;;13.57;8.70;;;;;;;;;;6220407;28;20141;-67
2021/11/09 00:08:12;;;;;;;10.45;8.40;;;;;;;;;;6212097;28;20442;-67
2021/11/09 00:11:15;;;;;;;11.15;7.97;;;;;;;;;;6217874;28;20084;-70
2021/11/09 00:14:16;;;;;;;85.95;46.47;;;;;;;;;;6222552;28;20921;-67
2021/11/09 00:17:18;;;;;;;71.15;36.75;;;;;;;;;;6211212;28;20477;-68
2021/11/09 00:20:20;;;;;;;50.10;26.33;;;;;;;;;;6213531;28;20113;-68
2021/11/09 00:23:22;;;;;;;34.25;19.95;;;;;;;;;;6238015;28;20132;-65
2021/11/09 00:26:25;;;;;;;19.60;12.77;;;;;;;;;;6210090;28;20112;-66
2021/11/09 00:29:26;;;;;;;13.07;9.40;;;;;;;;;;6223250;28;20531;-66
2021/11/09 00:32:28;;;;;;;12.43;8.90;;;;;;;;;;6204325;28;20049;-66
2021/11/09 00:35:30;;;;;;;12.63;9.10;;;;;;;;;;6212306;28;20107;-66
2021/11/09 00:38:31;;;;;;;12.38;8.90;;;;;;;;;;6220339;28;20050;-66
2021/11/09 00:41:34;;;;;;;12.50;8.68;;;;;;;;;;6216015;28;20049;-65
2021/11/09 00:44:35;;;;;;;12.55;8.65;;;;;;;;;;6223291;28;20069;-66
2021/11/09 00:47:37;;;;;;;12.82;8.70;;;;;;;;;;6203840;28;20428;-66
2021/11/09 00:50:39;;;;;;;11.15;8.70;;;;;;;;;;6223815;28;20389;-66
2021/11/09 00:53:41;;;;;;;10.95;8.25;;;;;;;;;;6241286;28;20037;-65
2021/11/09 00:56:43;;;;;;;11.48;8.32;;;;;;;;;;6231904;28;20044;-66
2021/11/09 00:59:45;;;;;;;11.75;8.48;;;;;;;;;;6237827;28;20123;-66
2021/11/09 01:02:47;;;;;;;11.30;8.07;;;;;;;;;;6206220;28;20060;-66
2021/11/09 01:05:49;;;;;;;10.73;7.93;;;;;;;;;;6212626;28;20061;-66
2021/11/09 01:08:50;;;;;;;11.48;8.25;;;;;;;;;;6226314;28;20095;-66
2021/11/09 01:11:54;;;;;;;11.70;8.90;;;;;;;;;;6214274;28;20616;-66
2021/11/09 01:14:57;;;;;;;13.18;8.45;;;;;;;;;;6235128;28;20050;-66
2021/11/09 01:17:59;;;;;;;10.38;8.00;;;;;;;;;;6208922;28;20041;-66
2021/11/09 01:21:01;;;;;;;10.75;8.05;;;;;;;;;;6218380;28;20436;-66
2021/11/09 01:24:03;;;;;;;10.93;8.25;;;;;;;;;;6221228;28;20077;-66
2021/11/09 01:27:06;;;;;;;11.32;8.38;;;;;;;;;;6216216;28;20432;-66
2021/11/09 01:30:09;;;;;;;15.30;8.00;;;;;;;;;;6219832;28;20053;-66
2021/11/09 01:33:11;;;;;;;10.63;7.47;;;;;;;;;;6213613;28;20139;-66
2021/11/09 01:36:12;;;;;;;9.20;7.57;;;;;;;;;;6215576;28;20041;-66
2021/11/09 01:39:14;;;;;;;10.15;7.50;;;;;;;;;;6225308;28;20137;-66
2021/11/09 01:42:17;;;;;;;10.30;7.38;;;;;;;;;;6214492;28;20683;-66
2021/11/09 01:45:19;;;;;;;9.75;7.20;;;;;;;;;;6213962;28;21168;-66
2021/11/09 01:48:20;;;;;;;10.70;7.43;;;;;;;;;;6217794;28;20152;-66
2021/11/09 01:51:22;;;;;;;10.15;7.05;;;;;;;;;;6218640;28;20412;-66
2021/11/09 01:54:23;;;;;;;11.13;7.55;;;;;;;;;;6225304;28;20045;-66
2021/11/09 01:57:27;;;;;;;13.30;7.93;;;;;;;;;;6215546;28;20084;-66
2021/11/09 02:00:34;;;;;;;13.98;7.30;;;;;;;;;;6205348;28;20068;-66
2021/11/09 02:03:36;;;;;;;10.00;7.30;;;;;;;;;;6221649;28;20059;-66
2021/11/09 02:06:38;;;;;;;11.30;7.82;;;;;;;;;;6215685;28;20041;-66
2021/11/09 02:09:40;;;;;;;10.93;7.72;;;;;;;;;;6221588;28;20473;-66
2021/11/09 02:12:43;;;;;;;10.52;7.50;;;;;;;;;;6215895;28;20473;-66
2021/11/09 02:15:45;;;;;;;9.97;7.57;;;;;;;;;;6209413;28;20046;-66
2021/11/09 02:18:46;;;;;;;11.02;8.18;;;;;;;;;;6222109;28;20110;-66
2021/11/09 02:21:49;;;;;;;9.23;7.50;;;;;;;;;;6229316;28;20135;-66
2021/11/09 02:24:50;;;;;;;13.27;7.38;;;;;;;;;;6244378;28;20045;-66
2021/11/09 02:27:52;;;;;;;10.98;7.35;;;;;;;;;;6226555;28;20896;-66
2021/11/09 02:30:53;;;;;;;10.00;7.60;;;;;;;;;;6234361;28;20175;-66
2021/11/09 02:33:55;;;;;;;11.82;8.15;;;;;;;;;;6216181;28;20049;-66
2021/11/09 02:36:58;;;;;;;10.27;7.63;;;;;;;;;;6214904;28;20145;-66
2021/11/09 02:40:00;;;;;;;10.77;7.95;;;;;;;;;;6222522;28;20049;-66
2021/11/09 02:43:03;;;;;;;11.07;7.85;;;;;;;;;;6213303;28;20046;-66
2021/11/09 02:49:34;;;;;;;11.07;7.97;;;;;;;;;;6215147;28;20053;-66
2021/11/09 02:52:45;;;;;;;13.32;8.80;;;;;;;;;;6212365;28;20259;-66
2021/11/09 02:55:50;;;;;;;11.68;7.82;;;;;;;;;;6215660;28;20766;-66
2021/11/09 02:58:56;;;;;;;12.40;8.43;;;;;;;;;;6227466;28;20045;-66
2021/11/09 03:02:02;;;;;;;9.95;7.57;;;;;;;;;;6204446;28;20501;-66
2021/11/09 03:05:09;;;;;;;12.27;8.48;;;;;;;;;;6220881;28;20076;-66
2021/11/09 03:08:22;;;;;;;12.55;8.70;;;;;;;;;;6226417;28;20554;-66
2021/11/09 03:11:24;;;;;;;12.23;8.13;;;;;;;;;;6217746;28;20045;-66
2021/11/09 03:14:26;;;;;;;11.75;8.55;;;;;;;;;;6225624;28;20608;-65
2021/11/09 03:17:36;;;;;;;12.68;8.38;;;;;;;;;;6222013;28;20131;-66
2021/11/09 03:20:40;;;;;;;10.50;8.60;;;;;;;;;;6217395;28;20534;-65
2021/11/09 03:40:31;;;;;;;11.95;8.10;;;;;;;;;;6219300;28;20046;-66
2021/11/09 03:46:54;;;;;;;11.57;9.38;;;;;;;;;;6212886;28;20062;-66
2021/11/09 03:49:58;;;;;;;14.03;9.10;;;;;;;;;;6225690;28;20599;-66
2021/11/09 03:52:59;;;;;;;12.23;8.57;;;;;;;;;;6217290;28;20492;-65
2021/11/09 03:56:11;;;;;;;14.82;9.85;;;;;;;;;;6218946;28;20050;-66
2021/11/09 03:59:16;;;;;;;12.10;8.60;;;;;;;;;;6229332;28;20049;-66
2021/11/09 04:02:24;;;;;;;14.65;10.13;;;;;;;;;;6216182;28;20049;-65
2021/11/09 04:05:31;;;;;;;18.20;10.85;;;;;;;;;;6212412;28;20073;-66
2021/11/09 04:08:40;;;;;;;20.48;11.52;;;;;;;;;;6231483;28;20049;-65
2021/11/09 04:11:49;;;;;;;20.17;11.15;;;;;;;;;;6211345;28;20354;-65
2021/11/09 04:14:55;;;;;;;21.13;11.77;;;;;;;;;;6234946;28;20054;-65
2021/11/09 04:21:25;;;;;;;24.90;12.85;;;;;;;;;;6205286;28;20057;-66
2021/11/09 04:27:51;;;;;;;22.48;11.60;;;;;;;;;;6220505;28;20544;-65
2021/11/09 05:10:59;;;;;;;19.70;11.85;;;;;;;;;;6215161;28;20312;-65
2021/11/09 05:14:01;;;;;;;19.25;12.13;;;;;;;;;;6229342;28;21885;-65
2021/11/09 05:17:04;;;;;;;22.38;11.98;;;;;;;;;;6218873;28;20540;-65
2021/11/09 05:20:06;;;;;;;27.80;13.53;;;;;;;;;;6231423;28;20143;-65
2021/11/09 05:23:07;;;;;;;26.27;12.57;;;;;;;;;;6228423;28;20042;-65
2021/11/09 05:26:09;;;;;;;26.45;12.10;;;;;;;;;;6231531;28;20049;-65
2021/11/09 05:29:11;;;;;;;24.70;13.98;;;;;;;;;;6236951;28;20057;-65
2021/11/09 05:32:14;;;;;;;24.17;12.65;;;;;;;;;;6232083;28;20128;-65
2021/11/09 05:35:15;;;;;;;22.67;12.55;;;;;;;;;;6229458;28;20069;-65
2021/11/09 05:38:24;;;;;;;21.38;12.20;;;;;;;;;;6227978;28;20049;-65
2021/11/09 05:41:31;;;;;;;22.60;13.27;;;;;;;;;;6224026;28;20061;-65
2021/11/09 05:44:32;;;;;;;22.52;13.43;;;;;;;;;;6224550;28;20049;-64
2021/11/09 05:47:35;;;;;;;23.02;13.43;;;;;;;;;;6214036;28;20132;-65
2021/11/09 05:50:36;;;;;;;23.10;13.48;;;;;;;;;;6214283;28;20033;-65
2021/11/09 05:53:37;;;;;;;24.50;13.73;;;;;;;;;;6230332;28;20120;-65
2021/11/09 05:56:39;;;;;;;26.88;14.10;;;;;;;;;;6217067;28;20057;-65
2021/11/09 05:59:41;;;;;;;22.63;13.32;;;;;;;;;;6228317;28;20624;-65
2021/11/09 06:02:44;;;;;;;21.25;13.57;;;;;;;;;;6209158;28;20048;-66
2021/11/09 06:05:45;;;;;;;21.80;13.13;;;;;;;;;;6212067;28;20071;-66
2021/11/09 06:08:49;;;;;;;19.63;13.23;;;;;;;;;;6224960;28;20137;-65
2021/11/09 06:11:51;;;;;;;20.50;13.23;;;;;;;;;;6219926;28;20547;-65
2021/11/09 06:14:52;;;;;;;20.88;13.65;;;;;;;;;;6223474;28;20050;-65
2021/11/09 06:17:55;;;;;;;21.92;13.70;;;;;;;;;;6210443;28;20091;-65
2021/11/09 06:20:56;;;;;;;21.02;13.90;;;;;;;;;;6218092;28;20049;-65
2021/11/09 06:23:58;;;;;;;18.38;13.07;;;;;;;;;;6232701;28;20048;-65
2021/11/09 06:26:59;;;;;;;20.15;12.73;;;;;;;;;;6217252;28;20180;-64
2021/11/09 06:30:02;;;;;;;22.88;13.95;;;;;;;;;;6227398;28;20058;-65
2021/11/09 06:33:05;;;;;;;21.20;13.18;;;;;;;;;;6209213;28;20046;-64
2021/11/09 06:36:06;;;;;;;20.42;13.85;;;;;;;;;;6211127;28;20077;-64
2021/11/09 06:39:07;;;;;;;19.02;12.77;;;;;;;;;;6225622;28;20050;-64
2021/11/09 06:42:09;;;;;;;20.17;13.45;;;;;;;;;;6217740;28;20107;-65
2021/11/09 06:45:11;;;;;;;20.48;14.32;;;;;;;;;;6219773;28;20508;-65
2021/11/09 06:48:14;;;;;;;22.73;14.05;;;;;;;;;;6213475;28;20085;-65
2021/11/09 06:51:15;;;;;;;20.48;14.07;;;;;;;;;;6212237;28;20041;-65
2021/11/09 06:54:16;;;;;;;25.67;15.25;;;;;;;;;;6229414;28;20047;-65
2021/11/09 06:57:18;;;;;;;21.40;15.35;;;;;;;;;;6213531;28;20042;-67
2021/11/09 07:00:21;;;;;;;20.48;14.98;;;;;;;;;;6218066;28;20072;-67
2021/11/09 07:03:24;;;;;;;24.75;15.82;;;;;;;;;;6220586;28;20608;-67
2021/11/09 07:06:25;;;;;;;23.98;15.75;;;;;;;;;;6209379;28;20064;-64
2021/11/09 07:09:27;;;;;;;22.25;14.60;;;;;;;;;;6225561;28;20076;-65
2021/11/09 07:12:29;;;;;;;21.73;14.85;;;;;;;;;;6212249;28;20056;-64
2021/11/09 07:15:30;;;;;;;19.95;14.20;;;;;;;;;;6213358;28;20714;-66
2021/11/09 07:18:33;;;;;;;19.13;13.18;;;;;;;;;;6219077;28;20064;-67
2021/11/09 07:21:34;;;;;;;22.35;13.07;;;;;;;;;;6211781;28;20053;-67
2021/11/09 07:24:36;;;;;;;22.30;12.27;;;;;;;;;;6222616;28;20045;-65
2021/11/09 07:27:37;;;;;;;22.73;13.15;;;;;;;;;;6213738;28;20061;-67
2021/11/09 07:30:44;;;;;;;22.27;13.48;;;;;;;;;;6212171;28;20077;-67
2021/11/09 07:33:48;;;;;;;18.70;12.80;;;;;;;;;;6217902;28;20049;-67
2021/11/09 07:36:50;;;;;;;20.77;12.98;;;;;;;;;;6218812;28;20048;-67
2021/11/09 07:39:52;;;;;;;23.63;13.02;;;;;;;;;;6221067;28;20085;-67
2021/11/09 07:42:53;;;;;;;17.40;12.27;;;;;;;;;;6213346;28;20053;-70
2021/11/09 07:45:55;;;;;;;44.38;14.85;;;;;;;;;;6208709;28;20178;-64
2021/11/09 07:48:58;;;;;;;15.45;11.55;;;;;;;;;;6212593;28;20136;-65
2021/11/09 07:51:59;;;;;;;15.73;11.23;;;;;;;;;;6217366;28;20087;-65
2021/11/09 07:55:04;;;;;;;12.18;9.07;;;;;;;;;;6216831;28;20064;-65
2021/11/09 07:58:11;;;;;;;15.13;10.45;;;;;;;;;;6215787;28;20045;-65
2021/11/09 08:01:14;;;;;;;16.10;9.57;;;;;;;;;;6210310;28;20060;-65
2021/11/09 08:04:24;;;;;;;12.07;9.10;;;;;;;;;;6219218;28;20042;-65
2021/11/09 08:07:27;;;;;;;17.80;9.27;;;;;;;;;;6208339;28;20406;-66
2021/11/09 08:10:28;;;;;;;17.35;9.75;;;;;;;;;;6218822;28;20052;-65
2021/11/09 08:13:29;;;;;;;15.18;9.68;;;;;;;;;;6218659;28;20126;-65
2021/11/09 08:16:31;;;;;;;13.85;9.93;;;;;;;;;;6200693;28;20045;-65
2021/11/09 08:19:33;;;;;;;15.40;10.38;;;;;;;;;;6220864;28;20060;-65
2021/11/09 08:22:35;;;;;;;15.60;9.90;;;;;;;;;;6211274;28;20447;-65
2021/11/09 08:25:36;;;;;;;16.02;10.18;;;;;;;;;;6208025;28;20057;-66
2021/11/09 08:28:38;;;;;;;15.13;9.77;;;;;;;;;;6222338;28;20050;-65
2021/11/09 08:31:42;;;;;;;16.00;9.30;;;;;;;;;;6202780;28;20152;-65
2021/11/09 08:34:45;;;;;;;15.50;8.63;;;;;;;;;;6221402;28;20394;-65
2021/11/09 08:37:46;;;;;;;11.75;7.50;;;;;;;;;;6206234;28;20140;-65
2021/11/09 08:40:50;;;;;;;14.90;9.20;;;;;;;;;;6211677;28;20175;-66
2021/11/09 08:44:00;;;;;;;13.65;8.32;;;;;;;;;;6220651;28;20053;-65
2021/11/09 08:47:02;;;;;;;12.55;7.72;;;;;;;;;;6202593;28;20100;-65
2021/11/09 08:50:05;;;;;;;14.73;7.18;;;;;;;;;;6217418;28;20066;-65
2021/11/09 08:53:11;;;;;;;10.95;6.65;;;;;;;;;;6218583;28;20056;-65
2021/11/09 08:56:23;;;;;;;10.82;6.80;;;;;;;;;;6214140;28;20049;-65
2021/11/09 09:06:12;;;;;;;9.55;7.25;;;;;;;;;;6150534;28;20138;-66
2021/11/09 09:09:14;;;;;;;13.05;7.07;;;;;;;;;;6219715;28;20053;-66
2021/11/09 09:12:15;;;;;;;14.43;7.78;;;;;;;;;;6210350;28;20057;-65
2021/11/09 09:15:18;;;;;;;14.63;8.75;;;;;;;;;;6214486;28;20367;-65
2021/11/09 09:18:19;;;;;;;15.60;8.32;;;;;;;;;;6212540;28;20045;-65
2021/11/09 09:21:27;;;;;;;16.02;9.10;;;;;;;;;;6213938;28;20042;-65
2021/11/09 09:24:37;;;;;;;16.25;8.88;;;;;;;;;;6222619;28;20058;-65
2021/11/09 09:27:56;;;;;;;12.65;8.65;;;;;;;;;;6209904;28;20046;-65
2021/11/09 09:57:39;;;;;;;11.45;8.00;;;;;;;;;;6194298;28;20124;-65
2021/11/09 10:00:42;;;;;;;9.82;7.88;;;;;;;;;;6220950;28;20083;-66
2021/11/09 10:03:44;;;;;;;11.60;8.57;;;;;;;;;;6218798;28;20045;-66
2021/11/09 10:06:46;;;;;;;10.50;8.65;;;;;;;;;;6214486;28;20068;-66
2021/11/09 10:09:49;;;;;;;10.27;7.97;;;;;;;;;;6221379;28;20049;-65
2021/11/09 10:12:58;;;;;;;10.47;7.50;;;;;;;;;;6214343;28;20042;-65
2021/11/09 10:16:00;;;;;;;8.68;7.55;;;;;;;;;;6211366;28;20210;-65
2021/11/09 10:19:01;;;;;;;9.10;7.65;;;;;;;;;;6222032;28;20068;-65
2021/11/09 10:22:15;;;;;;;10.63;7.28;;;;;;;;;;6213489;28;20188;-66
2021/11/09 10:25:20;;;;;;;10.95;7.53;;;;;;;;;;6214190;28;20128;-66
2021/11/09 10:28:23;;;;;;;10.63;6.65;;;;;;;;;;6223615;28;20065;-66
2021/11/09 10:31:25;;;;;;;;;;;;;;;;;;6212570;28;20045;-67
2021/11/09 10:34:29;;;;;;;13.02;7.13;;;;;;;;;;6221374;28;19931;-66
2021/11/09 10:37:31;;;;;;;10.63;7.18;;;;;;;;;;6218395;28;20076;-65
2021/11/09 10:40:36;;;;;;;10.25;7.75;;;;;;;;;;6223348;28;20500;-65
2021/11/09 10:43:37;;;;;;;13.55;7.28;;;;;;;;;;6237182;28;20049;-65
2021/11/09 10:46:39;;;;;;;10.00;6.50;;;;;;;;;;6216678;28;20390;-65
2021/11/09 10:49:46;;;;;;;9.98;7.20;;;;;;;;;;6230523;28;20058;-64
2021/11/09 10:52:49;;;;;;;8.95;6.93;;;;;;;;;;6217796;28;20058;-64
2021/11/09 10:56:01;;;;;;;9.10;6.78;;;;;;;;;;6218702;28;20144;-64
2021/11/09 10:59:14;;;;;;;9.68;6.97;;;;;;;;;;6231499;28;20052;-65
2021/11/09 11:05:44;;;;;;;7.45;6.63;;;;;;;;;;6211147;28;20133;-65
2021/11/09 11:08:46;;;;;;;6.05;5.00;;;;;;;;;;6225129;28;20057;-64
2021/11/09 11:11:50;;;;;;;8.77;6.68;;;;;;;;;;6218415;28;20139;-65
2021/11/09 11:14:51;;;;;;;10.18;6.82;;;;;;;;;;6229968;28;20635;-63
2021/11/09 11:17:53;;;;;;;8.93;7.00;;;;;;;;;;6207231;28;20054;-65
2021/11/09 11:20:55;;;;;;;8.10;6.35;;;;;;;;;;6208022;28;22166;-64
2021/11/09 11:23:57;;;;;;;8.23;6.53;;;;;;;;;;6220253;28;20053;-64
2021/11/09 11:27:00;;;;;;;10.02;6.68;;;;;;;;;;6210840;28;20500;-65
2021/11/09 11:30:01;;;;;;;14.02;8.60;;;;;;;;;;6218049;28;20049;-65
2021/11/09 11:33:03;;;;;;;11.95;8.73;;;;;;;;;;6203252;28;20107;-65
2021/11/09 11:36:05;;;;;;;10.43;7.78;;;;;;;;;;6213632;28;20140;-65
2021/11/09 11:39:08;;;;;;;9.52;7.20;;;;;;;;;;6229907;28;20567;-65
2021/11/09 11:42:12;;;;;;;10.13;7.63;;;;;;;;;;6208524;28;20476;-65
2021/11/09 11:45:13;;;;;;;9.13;6.93;;;;;;;;;;6213717;28;20068;-65
2021/11/09 11:48:15;;;;;;;11.05;7.40;;;;;;;;;;6214044;28;20144;-64
2021/11/09 11:51:16;;;;;;;8.70;5.97;;;;;;;;;;6203568;28;20034;-65
2021/11/09 11:54:18;;;;;;;9.18;6.00;;;;;;;;;;6220572;28;20450;-65
2021/11/09 11:57:41;;;;;;;8.05;5.68;;;;;;;;;;6210041;28;20053;-65
2021/11/09 12:00:48;;;;;;;10.30;7.05;;;;;;;;;;6218381;28;20052;-64
2021/11/09 12:03:49;;;;;;;8.07;5.80;;;;;;;;;;6220050;28;21025;-65
2021/11/09 12:06:51;;;;;;;8.85;5.97;;;;;;;;;;6225771;28;20144;-65
2021/11/09 12:10:04;;;;;;;11.70;6.53;;;;;;;;;;6229698;28;20122;-63
2021/11/09 12:13:06;;;;;;;9.00;6.05;;;;;;;;;;6216957;28;20038;-64
2021/11/09 12:16:09;;;;;;;6.97;5.90;;;;;;;;;;6211050;28;20053;-64
2021/11/09 12:19:40;;;;;;;8.93;5.57;;;;;;;;;;6221180;28;20160;-65
2021/11/09 12:22:43;;;;;;;7.03;5.47;;;;;;;;;;6207482;28;20786;-65
2021/11/09 12:25:45;;;;;;;9.48;5.60;;;;;;;;;;6212139;28;20134;-65
2021/11/09 12:28:46;;;;;;;9.90;5.75;;;;;;;;;;6239644;28;20057;-64
2021/11/09 12:31:49;;;;;;;9.25;5.82;;;;;;;;;;6209993;28;20845;-64
2021/11/09 12:34:57;;;;;;;7.38;5.47;;;;;;;;;;6232184;28;20058;-64
2021/11/09 12:38:07;;;;;;;8.15;5.35;;;;;;;;;;6216049;28;20726;-64
2021/11/09 12:41:10;;;;;;;9.68;5.43;;;;;;;;;;6215704;28;20046;-65
2021/11/09 12:44:11;;;;;;;5.75;4.50;;;;;;;;;;6229130;28;20133;-64
2021/11/09 12:47:14;;;;;;;10.68;5.25;;;;;;;;;;6210592;28;20045;-65
2021/11/09 12:50:15;;;;;;;7.75;4.93;;;;;;;;;;6225118;28;20137;-68
2021/11/09 12:53:19;;;;;;;8.27;5.15;;;;;;;;;;6234762;28;20111;-67
2021/11/09 12:56:24;;;;;;;7.22;5.18;;;;;;;;;;6224228;28;20407;-67
2021/11/09 12:59:29;;;;;;;8.52;4.80;;;;;;;;;;6246121;28;20635;-67
2021/11/09 13:02:40;;;;;;;7.10;4.85;;;;;;;;;;6220360;28;20140;-67
2021/11/09 13:05:50;;;;;;;5.22;4.03;;;;;;;;;;6224925;28;20041;-65
2021/11/09 13:08:58;;;;;;;6.80;4.38;;;;;;;;;;6228914;28;20406;-65
2021/11/09 13:12:01;;;;;;;5.05;4.15;;;;;;;;;;6224622;28;20041;-67
2021/11/09 13:15:04;;;;;;;6.22;4.20;;;;;;;;;;6238284;28;20658;-66
2021/11/09 13:18:07;;;;;;;6.57;4.10;;;;;;;;;;6212944;28;20061;-67
2021/11/09 13:21:14;;;;;;;5.43;4.00;;;;;;;;;;6216175;28;20112;-66
2021/11/09 13:24:18;;;;;;;8.55;4.20;;;;;;;;;;6239066;28;20053;-65
2021/11/09 13:27:20;;;;;;;6.82;4.40;;;;;;;;;;6228421;28;20174;-65
2021/11/09 13:30:24;;;;;;;6.93;4.85;;;;;;;;;;6228925;28;20183;-66
2021/11/09 13:33:25;;;;;;;;;;;;;;;;;;6222585;28;20131;-66
2021/11/09 13:36:28;;;;;;;6.38;3.78;;;;;;;;;;6225919;28;20049;-66
2021/11/09 13:39:29;;;;;;;7.68;4.07;;;;;;;;;;6230544;28;20041;-65
2021/11/09 13:42:30;;;;;;;5.60;4.28;;;;;;;;;;6214072;28;20574;-66
2021/11/09 13:45:32;;;;;;;5.95;3.72;;;;;;;;;;6219108;28;20501;-66
2021/11/09 13:48:35;;;;;;;6.60;4.00;;;;;;;;;;6215895;28;20183;-65
2021/11/09 13:51:43;;;;;;;6.95;4.20;;;;;;;;;;6217177;28;20060;-66
2021/11/09 13:54:44;;;;;;;5.13;3.65;;;;;;;;;;6221493;28;20049;-67
2021/11/09 13:57:46;;;;;;;6.32;4.05;;;;;;;;;;6230750;28;20163;-66
2021/11/09 14:00:49;;;;;;;5.40;4.07;;;;;;;;;;6219574;28;20060;-67
2021/11/09 14:04:03;;;;;;;6.50;3.97;;;;;;;;;;6229645;28;20049;-67
2021/11/09 14:07:43;;;;;;;6.03;3.70;;;;;;;;;;6226266;28;20454;-65
2021/11/09 14:11:11;;;;;;;11.63;4.28;;;;;;;;;;6221383;28;20115;-67
2021/11/09 14:14:27;;;;;;;7.28;4.32;;;;;;;;;;6228489;28;20045;-66
2021/11/09 14:17:32;;;;;;;8.25;4.68;;;;;;;;;;6211453;28;20041;-64
2021/11/09 14:20:33;;;;;;;6.65;4.47;;;;;;;;;;6222189;28;20068;-67
2021/11/09 14:23:38;;;;;;;7.70;4.65;;;;;;;;;;6221014;28;20104;-66
2021/11/09 14:26:39;;;;;;;5.82;4.57;;;;;;;;;;6220713;28;20128;-66
2021/11/09 14:29:43;;;;;;;7.03;4.95;;;;;;;;;;6227279;28;20300;-66
2021/11/09 14:32:45;;;;;;;12.05;5.40;;;;;;;;;;6210831;28;20046;-65
2021/11/09 14:35:46;;;;;;;9.98;4.88;;;;;;;;;;6222416;28;20398;-68
2021/11/09 14:38:52;;;;;;;8.10;5.40;;;;;;;;;;6224593;28;20045;-65
2021/11/09 14:41:59;;;;;;;8.35;5.78;;;;;;;;;;6215529;28;20052;-65
2021/11/09 14:45:08;;;;;;;8.82;5.03;;;;;;;;;;6224073;28;20081;-67
2021/11/09 14:48:12;;;;;;;9.88;5.38;;;;;;;;;;6220955;28;20049;-66
2021/11/09 14:51:14;;;;;;;;;;;;;;;;;;6224284;28;20052;-65
2021/11/09 14:54:23;;;;;;;11.05;5.18;;;;;;;;;;6228652;28;19982;-65
2021/11/09 14:57:31;;;;;;;10.05;6.38;;;;;;;;;;6219987;28;20111;-65
2021/11/09 15:00:33;;;;;;;8.73;5.35;;;;;;;;;;6222810;28;20061;-65
2021/11/09 15:03:49;;;;;;;9.07;5.18;;;;;;;;;;6219939;28;20041;-65
2021/11/09 15:06:58;;;;;;;8.10;5.25;;;;;;;;;;6210558;28;20723;-65
2021/11/09 15:10:14;;;;;;;8.65;4.85;;;;;;;;;;6222964;28;20045;-65
2021/11/09 15:13:29;;;;;;;8.38;5.30;;;;;;;;;;6213403;28;20516;-68
2021/11/09 15:26:43;;;;;;;7.93;5.20;;;;;;;;;;6218408;28;20524;-66
2021/11/09 15:29:48;;;;;;;7.88;5.38;;;;;;;;;;6226142;28;20100;-66
2021/11/09 15:32:49;;;;;;;10.88;5.28;;;;;;;;;;6211101;28;20056;-66
2021/11/09 15:39:25;;;;;;;10.27;5.80;;;;;;;;;;6200284;28;20391;-66
2021/11/09 15:42:29;;;;;;;9.52;5.55;;;;;;;;;;6207927;28;20046;-67
2021/11/09 15:45:31;;;;;;;7.95;5.80;;;;;;;;;;6207500;28;20042;-67
2021/11/09 15:48:32;;;;;;;11.48;5.80;;;;;;;;;;6212665;28;20106;-67
2021/11/09 15:51:34;;;;;;;9.65;5.63;;;;;;;;;;6210909;28;20064;-66
2021/11/09 15:54:35;;;;;;;9.43;6.30;;;;;;;;;;6228611;28;20058;-66
2021/11/09 15:57:39;;;;;;;11.38;5.80;;;;;;;;;;6217155;28;20516;-66
2021/11/09 16:00:40;;;;;;;15.05;6.50;;;;;;;;;;6207072;28;20103;-66
2021/11/09 16:03:42;;;;;;;12.30;6.18;;;;;;;;;;6223319;28;20409;-66
2021/11/09 16:06:43;;;;;;;12.85;6.32;;;;;;;;;;6210138;28;20069;-66
2021/11/09 16:09:48;;;;;;;9.57;6.07;;;;;;;;;;6225327;28;20497;-65
2021/11/09 16:12:51;;;;;;;11.77;6.85;;;;;;;;;;6217795;28;20410;-66
2021/11/09 16:15:52;;;;;;;10.45;6.45;;;;;;;;;;6205552;28;20115;-66
2021/11/09 16:18:54;;;;;;;10.88;6.15;;;;;;;;;;6223810;28;20141;-65
2021/11/09 16:21:55;;;;;;;10.20;6.45;;;;;;;;;;6209800;28;20489;-66
2021/11/09 16:24:56;;;;;;;9.55;6.25;;;;;;;;;;6224925;28;20057;-66
2021/11/09 16:27:59;;;;;;;14.68;6.75;;;;;;;;;;6210406;28;20133;-66
2021/11/09 16:31:01;;;;;;;14.90;6.90;;;;;;;;;;6207042;28;20136;-65
2021/11/09 16:34:02;;;;;;;13.20;6.22;;;;;;;;;;6221669;28;20798;-66
2021/11/09 16:37:04;;;;;;;9.88;6.05;;;;;;;;;;6215433;28;20046;-65
2021/11/09 16:40:08;;;;;;;15.50;6.53;;;;;;;;;;6227382;28;20042;-66
2021/11/09 16:43:14;;;;;;;10.93;6.88;;;;;;;;;;6228611;28;20099;-65
2021/11/09 16:46:24;;;;;;;12.80;6.82;;;;;;;;;;6214310;28;20481;-65
2021/11/09 16:52:45;;;;;;;14.70;7.13;;;;;;;;;;6213892;28;20068;-65
2021/11/09 17:02:56;;;;;;;18.45;6.97;;;;;;;;;;6147086;28;20152;-66
2021/11/09 17:06:14;;;;;;;10.50;6.57;;;;;;;;;;6170349;28;20062;-65
2021/11/09 18:15:58;;;;;;;13.02;8.07;;;;;;;;;;6232417;28;20528;-66
2021/11/09 18:22:21;;;;;;;13.10;8.40;;;;;;;;;;6231376;28;20037;-65
2021/11/09 18:25:24;;;;;;;15.23;8.40;;;;;;;;;;6230194;28;20061;-65
2021/11/09 18:28:25;;;;;;;11.13;7.97;;;;;;;;;;6226556;28;20229;-65
2021/11/09 18:31:27;;;;;;;12.52;8.50;;;;;;;;;;6218166;28;20126;-65
2021/11/09 18:34:28;;;;;;;12.57;8.82;;;;;;;;;;6224160;28;20087;-66
2021/11/09 18:37:31;;;;;;;12.93;8.13;;;;;;;;;;6209273;28;20046;-66
2021/11/09 18:40:36;;;;;;;11.40;8.25;;;;;;;;;;6225845;28;20458;-65
2021/11/09 18:43:38;;;;;;;12.65;8.68;;;;;;;;;;6233589;28;20172;-66
2021/11/09 18:46:39;;;;;;;12.65;8.27;;;;;;;;;;6219827;28;20061;-65
2021/11/09 18:49:41;;;;;;;12.63;8.35;;;;;;;;;;6230540;28;20554;-64
2021/11/09 18:52:44;;;;;;;12.38;8.90;;;;;;;;;;6210445;28;20038;-66
2021/11/09 18:55:45;;;;;;;12.38;8.68;;;;;;;;;;6220460;28;20097;-66
2021/11/09 18:58:47;;;;;;;14.55;8.40;;;;;;;;;;6238304;28;20060;-67
2021/11/09 19:01:50;;;;;;;15.15;8.60;;;;;;;;;;6213624;28;20045;-65
2021/11/09 19:04:51;;;;;;;14.50;9.15;;;;;;;;;;6222770;28;20137;-65
2021/11/09 19:07:54;;;;;;;13.95;9.00;;;;;;;;;;6209143;28;20137;-65
2021/11/09 19:10:56;;;;;;;14.48;8.88;;;;;;;;;;6223515;28;20128;-64
2021/11/09 19:13:57;;;;;;;13.60;9.57;;;;;;;;;;6228846;28;20056;-65
2021/11/09 19:16:59;;;;;;;13.48;8.50;;;;;;;;;;6213279;28;20135;-64
2021/11/09 19:20:00;;;;;;;15.77;9.50;;;;;;;;;;6234782;28;20056;-66
2021/11/09 19:23:03;;;;;;;16.48;9.65;;;;;;;;;;6230335;28;20133;-66
2021/11/09 19:26:04;;;;;;;13.57;9.45;;;;;;;;;;6234135;28;20041;-65
2021/11/09 19:29:06;;;;;;;12.65;9.40;;;;;;;;;;6237464;28;20126;-64
2021/11/09 19:32:07;;;;;;;15.85;9.73;;;;;;;;;;6214100;28;20176;-65
2021/11/09 19:35:09;;;;;;;16.65;10.30;;;;;;;;;;6234136;28;20172;-66
2021/11/09 19:38:12;;;;;;;18.73;9.82;;;;;;;;;;6218386;28;20061;-65
2021/11/09 19:41:14;;;;;;;16.15;10.35;;;;;;;;;;6231879;28;20484;-64
2021/11/09 19:44:15;;;;;;;13.77;9.43;;;;;;;;;;6228880;28;20041;-65
2021/11/09 19:47:17;;;;;;;14.85;9.60;;;;;;;;;;6219835;28;20037;-65
2021/11/09 19:50:20;;;;;;;16.83;10.38;;;;;;;;;;6229423;28;20161;-66
2021/11/09 19:53:23;;;;;;;14.25;9.65;;;;;;;;;;6231249;28;20042;-66
2021/11/09 19:56:24;;;;;;;16.15;10.68;;;;;;;;;;6225449;28;20171;-66
2021/11/09 19:59:28;;;;;;;14.57;10.13;;;;;;;;;;6233051;28;20053;-65
2021/11/09 20:02:32;;;;;;;19.35;10.32;;;;;;;;;;6217609;28;20049;-65
2021/11/09 20:05:33;;;;;;;15.85;10.73;;;;;;;;;;6220896;28;20052;-65
2021/11/09 20:08:36;;;;;;;17.00;10.48;;;;;;;;;;6231930;28;20038;-65
2021/11/09 20:11:39;;;;;;;16.23;10.95;;;;;;;;;;6225615;28;20559;-65
2021/11/09 20:14:46;;;;;;;16.43;9.90;;;;;;;;;;6231248;28;20045;-65
2021/11/09 20:17:48;;;;;;;15.68;11.40;;;;;;;;;;6222833;28;20696;-65
2021/11/09 20:20:51;;;;;;;21.35;11.60;;;;;;;;;;6227220;28;20037;-65
2021/11/09 20:23:54;;;;;;;17.23;11.00;;;;;;;;;;6233868;28;20437;-65
2021/11/09 20:26:59;;;;;;;18.52;11.93;;;;;;;;;;6228476;28;20595;-65
2021/11/09 20:30:00;;;;;;;19.75;11.27;;;;;;;;;;6241878;28;20076;-65
2021/11/09 20:33:02;;;;;;;23.70;12.02;;;;;;;;;;6221266;28;20136;-64
2021/11/09 20:36:05;;;;;;;18.38;11.88;;;;;;;;;;6214466;28;20056;-64
2021/11/09 20:39:07;;;;;;;19.05;12.45;;;;;;;;;;6244707;28;20053;-64
2021/11/09 20:42:09;;;;;;;15.65;11.55;;;;;;;;;;6227156;28;20095;-65
2021/11/09 20:45:12;;;;;;;16.50;10.77;;;;;;;;;;6228927;28;20051;-66
2021/11/09 20:48:14;;;;;;;16.77;11.67;;;;;;;;;;6219034;28;20056;-66
2021/11/09 20:51:15;;;;;;;17.33;10.73;;;;;;;;;;6226917;28;20467;-65
2021/11/09 20:54:18;;;;;;;20.00;11.20;;;;;;;;;;6240798;28;20171;-65
2021/11/09 20:57:19;;;;;;;16.63;11.40;;;;;;;;;;6219892;28;20125;-66
2021/11/09 21:00:22;;;;;;;17.77;11.45;;;;;;;;;;6211888;28;20177;-66
2021/11/09 21:03:23;;;;;;;18.42;11.73;;;;;;;;;;6226583;28;20077;-65
2021/11/09 21:06:24;;;;;;;18.85;11.70;;;;;;;;;;6228522;28;20050;-65
2021/11/09 21:09:28;;;;;;;18.65;11.95;;;;;;;;;;6237966;28;20057;-65
2021/11/09 21:12:33;;;;;;;21.47;12.30;;;;;;;;;;6225977;28;20131;-65
2021/11/09 21:18:53;;;;;;;16.95;11.45;;;;;;;;;;6232318;28;20057;-65
2021/11/09 21:21:55;;;;;;;14.75;11.13;;;;;;;;;;6226286;28;20122;-65
2021/11/09 21:24:58;;;;;;;19.75;12.98;;;;;;;;;;6236685;28;20136;-65
2021/11/09 21:27:59;;;;;;;18.13;11.55;;;;;;;;;;6227840;28;20137;-65
2021/11/09 21:31:12;;;;;;;15.05;10.77;;;;;;;;;;6217736;28;20182;-65